createdAt,value
2019-04-01T00:01:21.178Z,8.30
2019-04-01T00:03:50.104Z,8.20
2019-04-01T00:06:18.947Z,8.20
2019-04-01T00:08:47.865Z,8.10
2019-04-01T00:11:17.021Z,8.10
2019-04-01T00:13:45.887Z,8.10
2019-04-01T00:16:14.752Z,8.00
2019-04-01T00:18:43.563Z,7.90
2019-04-01T00:21:12.513Z,7.90
2019-04-01T00:23:41.309Z,7.90
2019-04-01T00:26:10.111Z,7.80
2019-04-01T00:28:38.890Z,7.80
2019-04-01T00:31:07.694Z,7.80
2019-04-01T00:33:36.613Z,7.80
2019-04-01T00:36:05.559Z,7.80
2019-04-01T00:38:34.414Z,7.70
2019-04-01T00:41:03.832Z,7.60
2019-04-01T00:43:57.549Z,7.50
2019-04-01T00:46:26.833Z,7.50
2019-04-01T00:48:56.012Z,7.40
2019-04-01T00:51:25.030Z,7.40
2019-04-01T00:53:53.933Z,7.40
2019-04-01T00:56:22.851Z,7.30
2019-04-01T00:58:51.999Z,7.20
2019-04-01T01:01:20.821Z,7.20
2019-04-01T01:03:49.670Z,7.20
2019-04-01T01:06:18.536Z,7.20
2019-04-01T01:08:47.425Z,7.20
2019-04-01T01:11:16.307Z,7.20
2019-04-01T01:13:45.171Z,7.20
2019-04-01T01:16:14.070Z,7.20
2019-04-01T01:18:42.850Z,7.20
2019-04-01T01:21:11.721Z,7.20
2019-04-01T01:23:40.843Z,7.10
2019-04-01T01:26:10.591Z,7.10
2019-04-01T01:28:39.358Z,7.10
2019-04-01T01:31:08.276Z,7.20
2019-04-01T01:33:37.145Z,7.10
2019-04-01T01:36:05.934Z,7.10
2019-04-01T01:38:34.851Z,7.00
2019-04-01T01:41:03.715Z,7.00
2019-04-01T01:43:32.604Z,7.00
2019-04-01T01:46:01.898Z,6.90
2019-04-01T01:48:30.686Z,6.90
2019-04-01T01:50:59.489Z,6.80
2019-04-01T01:53:28.374Z,6.80
2019-04-01T01:55:57.250Z,6.80
2019-04-01T01:58:26.066Z,6.80
2019-04-01T02:00:57.492Z,6.80
2019-04-01T02:03:26.305Z,6.80
2019-04-01T02:05:55.174Z,6.80
2019-04-01T02:08:24.031Z,6.80
2019-04-01T02:10:52.818Z,6.70
2019-04-01T02:13:21.715Z,6.80
2019-04-01T02:15:50.656Z,6.80
2019-04-01T02:18:19.552Z,6.70
2019-04-01T02:20:48.360Z,6.60
2019-04-01T02:23:17.263Z,6.60
2019-04-01T02:25:46.026Z,6.60
2019-04-01T02:28:14.811Z,6.60
2019-04-01T02:30:43.629Z,6.60
2019-04-01T02:33:12.423Z,6.60
2019-04-01T02:35:41.485Z,6.60
2019-04-01T02:38:10.675Z,6.50
2019-04-01T02:40:39.959Z,6.50
2019-04-01T02:43:09.036Z,6.50
2019-04-01T02:45:39.147Z,6.50
2019-04-01T02:48:07.970Z,6.60
2019-04-01T02:50:36.769Z,6.60
2019-04-01T02:53:05.883Z,6.60
2019-04-01T02:55:34.671Z,6.50
2019-04-01T02:58:03.529Z,6.50
2019-04-01T03:00:32.429Z,6.40
2019-04-01T03:03:01.281Z,6.40
2019-04-01T03:05:30.055Z,6.50
2019-04-01T03:07:58.871Z,6.50
2019-04-01T03:10:27.680Z,6.50
2019-04-01T03:12:56.800Z,6.40
2019-04-01T03:15:25.825Z,6.40
2019-04-01T03:17:54.627Z,6.40
2019-04-01T03:20:23.458Z,6.40
2019-04-01T03:22:52.330Z,6.30
2019-04-01T03:25:21.161Z,6.30
2019-04-01T03:27:49.941Z,6.30
2019-04-01T03:30:18.817Z,6.30
2019-04-01T03:32:47.797Z,6.20
2019-04-01T03:35:16.886Z,6.20
2019-04-01T03:37:45.871Z,6.20
2019-04-01T03:40:14.805Z,6.20
2019-04-01T03:42:43.871Z,6.20
2019-04-01T03:45:12.841Z,6.10
2019-04-01T03:47:41.975Z,6.00
2019-04-01T03:50:10.947Z,6.00
2019-04-01T03:52:39.848Z,6.00
2019-04-01T03:55:08.806Z,6.00
2019-04-01T03:57:37.633Z,5.90
2019-04-01T04:00:06.818Z,5.90
2019-04-01T04:02:35.734Z,5.90
2019-04-01T04:05:04.820Z,5.90
2019-04-01T04:07:33.684Z,5.90
2019-04-01T04:10:02.614Z,5.80
2019-04-01T04:12:31.694Z,5.80
2019-04-01T04:15:00.723Z,5.70
2019-04-01T04:17:29.556Z,5.70
2019-04-01T04:19:58.680Z,5.70
2019-04-01T04:22:27.792Z,5.70
2019-04-01T04:24:56.969Z,5.70
2019-04-01T04:27:26.412Z,5.60
2019-04-01T04:29:55.394Z,5.60
2019-04-01T04:32:25.393Z,5.50
2019-04-01T04:34:57.181Z,5.50
2019-04-01T04:37:25.633Z,5.40
2019-04-01T04:39:54.491Z,5.50
2019-04-01T04:42:23.497Z,5.50
2019-04-01T04:44:52.991Z,5.40
2019-04-01T04:47:23.835Z,5.40
2019-04-01T04:49:52.852Z,5.30
2019-04-01T04:52:21.872Z,5.30
2019-04-01T04:54:50.791Z,5.30
2019-04-01T04:57:20.495Z,5.30
2019-04-01T04:59:49.466Z,5.40
2019-04-01T05:02:24.436Z,5.30
2019-04-01T05:04:52.155Z,5.30
2019-04-01T05:07:20.970Z,5.30
2019-04-01T05:09:49.808Z,5.20
2019-04-01T05:12:18.691Z,5.20
2019-04-01T05:14:47.925Z,5.10
2019-04-01T05:17:16.958Z,5.20
2019-04-01T05:19:45.901Z,5.10
2019-04-01T05:22:14.982Z,5.10
2019-04-01T05:24:44.050Z,5.10
2019-04-01T05:27:15.247Z,5.10
2019-04-01T05:29:45.712Z,5.20
2019-04-01T05:32:15.635Z,5.30
2019-04-01T05:34:45.679Z,5.40
2019-04-01T05:37:14.559Z,5.50
2019-04-01T05:39:43.557Z,5.60
2019-04-01T05:42:12.858Z,5.70
2019-04-01T05:44:41.882Z,5.80
2019-04-01T05:47:10.862Z,5.90
2019-04-01T05:49:40.531Z,6.00
2019-04-01T05:52:09.487Z,6.00
2019-04-01T05:54:38.975Z,6.10
2019-04-01T05:57:07.974Z,6.10
2019-04-01T05:59:37.027Z,6.30
2019-04-01T06:02:06.463Z,6.40
2019-04-01T06:04:35.450Z,6.50
2019-04-01T06:07:04.436Z,6.60
2019-04-01T06:09:33.460Z,6.60
2019-04-01T06:12:02.508Z,6.70
2019-04-01T06:14:31.446Z,6.90
2019-04-01T06:17:00.602Z,6.90
2019-04-01T06:19:29.435Z,7.10
2019-04-01T06:21:58.777Z,7.20
2019-04-01T06:24:27.601Z,7.30
2019-04-01T06:26:56.723Z,7.40
2019-04-01T06:29:25.603Z,7.50
2019-04-01T06:31:54.475Z,7.70
2019-04-01T06:34:23.497Z,7.80
2019-04-01T06:36:52.543Z,7.90
2019-04-01T06:39:21.470Z,8.10
2019-04-01T06:41:50.611Z,8.10
2019-04-01T06:44:19.678Z,8.20
2019-04-01T06:46:48.614Z,8.40
2019-04-01T06:49:20.192Z,8.40
2019-04-01T06:51:48.011Z,8.50
2019-04-01T06:54:16.863Z,8.70
2019-04-01T06:56:45.791Z,8.80
2019-04-01T06:59:14.716Z,9.00
2019-04-01T07:01:43.586Z,9.10
2019-04-01T07:04:12.849Z,9.20
2019-04-01T07:06:41.682Z,9.30
2019-04-01T07:09:10.469Z,9.40
2019-04-01T07:11:39.677Z,9.60
2019-04-01T07:14:08.758Z,9.70
2019-04-01T07:16:40.066Z,9.70
2019-04-01T07:19:08.218Z,9.90
2019-04-01T07:21:37.337Z,10.10
2019-04-01T07:24:06.267Z,10.20
2019-04-01T07:26:35.307Z,10.30
2019-04-01T07:29:04.329Z,10.60
2019-04-01T07:31:33.118Z,10.80
2019-04-01T07:34:02.350Z,10.90
2019-04-01T07:36:31.186Z,11.20
2019-04-01T07:39:00.065Z,11.50
2019-04-01T07:41:29.015Z,11.80
2019-04-01T07:43:57.910Z,12.30
2019-04-01T07:46:26.771Z,12.50
2019-04-01T07:48:55.549Z,12.90
2019-04-01T07:51:24.651Z,13.00
2019-04-01T07:53:53.519Z,13.00
2019-04-01T07:56:22.880Z,13.00
2019-04-01T07:58:51.710Z,13.10
2019-04-01T08:01:20.651Z,13.30
2019-04-01T08:03:49.876Z,13.60
2019-04-01T08:06:18.803Z,13.90
2019-04-01T08:08:47.996Z,14.30
2019-04-01T08:11:17.178Z,14.80
2019-04-01T08:13:46.233Z,14.60
2019-04-01T08:16:15.160Z,14.50
2019-04-01T08:18:44.035Z,14.90
2019-04-01T08:21:12.995Z,15.20
2019-04-01T08:23:42.077Z,15.50
2019-04-01T08:26:11.006Z,15.70
2019-04-01T08:28:39.883Z,15.90
2019-04-01T08:31:08.814Z,16.20
2019-04-01T08:33:37.736Z,16.40
2019-04-01T08:36:06.617Z,16.40
2019-04-01T08:38:35.483Z,16.60
2019-04-01T08:41:04.411Z,16.80
2019-04-01T08:43:33.386Z,17.00
2019-04-01T08:46:02.532Z,17.20
2019-04-01T08:48:31.374Z,17.40
2019-04-01T08:51:00.328Z,17.50
2019-04-01T08:53:29.239Z,17.30
2019-04-01T08:56:00.968Z,16.90
2019-04-01T08:58:29.758Z,16.90
2019-04-01T09:00:58.882Z,17.20
2019-04-01T09:03:27.694Z,16.90
2019-04-01T09:05:56.761Z,17.10
2019-04-01T09:08:26.226Z,17.50
2019-04-01T09:10:55.175Z,17.90
2019-04-01T09:13:24.479Z,18.30
2019-04-01T09:15:53.344Z,18.30
2019-04-01T09:18:22.206Z,18.30
2019-04-01T09:20:51.084Z,18.70
2019-04-01T09:23:19.960Z,19.10
2019-04-01T09:25:49.183Z,19.50
2019-04-01T09:28:18.208Z,20.00
2019-04-01T09:30:47.062Z,20.40
2019-04-01T09:33:15.880Z,20.10
2019-04-01T09:35:44.703Z,20.00
2019-04-01T09:38:13.492Z,19.80
2019-04-01T09:40:42.343Z,19.70
2019-04-01T09:43:13.886Z,19.40
2019-04-01T09:45:41.685Z,19.00
2019-04-01T09:48:10.545Z,19.00
2019-04-01T09:50:39.449Z,19.60
2019-04-01T09:53:08.239Z,20.20
2019-04-01T09:55:37.101Z,20.20
2019-04-01T09:58:06.009Z,20.20
2019-04-01T10:00:34.932Z,20.80
2019-04-01T10:03:03.890Z,21.10
2019-04-01T10:05:33.650Z,21.50
2019-04-01T10:08:02.558Z,22.00
2019-04-01T10:10:31.440Z,22.00
2019-04-01T10:13:00.262Z,21.70
2019-04-01T10:15:29.179Z,21.60
2019-04-01T10:17:58.127Z,21.50
2019-04-01T10:20:27.168Z,21.20
2019-04-01T10:22:56.018Z,21.20
2019-04-01T10:25:25.708Z,21.80
2019-04-01T10:27:54.670Z,22.30
2019-04-01T10:30:25.054Z,22.40
2019-04-01T10:32:53.838Z,21.90
2019-04-01T10:35:22.810Z,21.90
2019-04-01T10:37:51.620Z,21.40
2019-04-01T10:40:20.572Z,21.30
2019-04-01T10:42:49.633Z,21.50
2019-04-01T10:45:18.693Z,22.10
2019-04-01T10:47:47.630Z,21.70
2019-04-01T10:50:16.755Z,22.10
2019-04-01T10:52:45.621Z,22.70
2019-04-01T10:55:14.523Z,23.30
2019-04-01T10:57:43.935Z,23.70
2019-04-01T11:00:13.994Z,24.30
2019-04-01T11:02:43.035Z,24.60
2019-04-01T11:05:12.307Z,24.10
2019-04-01T11:07:41.241Z,24.30
2019-04-01T11:10:11.657Z,24.20
2019-04-01T11:12:40.937Z,24.10
2019-04-01T11:15:10.410Z,24.30
2019-04-01T11:17:39.290Z,24.30
2019-04-01T11:20:09.049Z,24.20
2019-04-01T11:22:37.928Z,24.10
2019-04-01T11:25:07.055Z,24.60
2019-04-01T11:27:35.966Z,24.00
2019-04-01T11:30:05.582Z,24.00
2019-04-01T11:32:34.455Z,23.80
2019-04-01T11:35:03.458Z,24.10
2019-04-01T11:37:32.297Z,24.20
2019-04-01T11:40:01.200Z,24.00
2019-04-01T11:42:30.050Z,24.00
2019-04-01T11:44:58.913Z,24.40
2019-04-01T11:47:27.778Z,23.20
2019-04-01T11:49:57.104Z,22.30
2019-04-01T11:52:26.545Z,22.30
2019-04-01T11:54:55.586Z,22.40
2019-04-01T11:57:24.474Z,23.00
2019-04-01T11:59:53.794Z,23.00
2019-04-01T12:02:23.995Z,23.00
2019-04-01T12:04:53.037Z,23.30
2019-04-01T12:07:21.879Z,23.70
2019-04-01T12:09:52.369Z,23.50
2019-04-01T12:12:24.037Z,24.30
2019-04-01T12:14:52.284Z,24.70
2019-04-01T12:17:21.253Z,25.20
2019-04-01T12:19:53.055Z,24.80
2019-04-01T12:22:20.640Z,24.50
2019-04-01T12:24:49.579Z,24.40
2019-04-01T12:27:18.459Z,25.10
2019-04-01T12:29:48.363Z,25.10
2019-04-01T12:32:17.620Z,24.10
2019-04-01T12:34:46.895Z,24.50
2019-04-01T12:37:16.059Z,24.90
2019-04-01T12:39:44.994Z,25.80
2019-04-01T12:42:13.894Z,25.90
2019-04-01T12:44:42.783Z,25.90
2019-04-01T12:47:11.855Z,26.40
2019-04-01T12:49:40.758Z,26.30
2019-04-01T12:52:09.779Z,26.30
2019-04-01T12:54:38.683Z,26.00
2019-04-01T12:57:07.566Z,26.10
2019-04-01T12:59:36.503Z,26.00
2019-04-01T13:02:05.394Z,26.20
2019-04-01T13:04:36.176Z,25.80
2019-04-01T13:07:05.460Z,24.10
2019-04-01T13:09:34.454Z,24.30
2019-04-01T13:12:04.008Z,24.80
2019-04-01T13:14:32.820Z,25.70
2019-04-01T13:17:01.723Z,25.50
2019-04-01T13:19:30.606Z,25.70
2019-04-01T13:21:59.407Z,25.70
2019-04-01T13:24:28.208Z,25.30
2019-04-01T13:26:56.993Z,25.20
2019-04-01T13:29:26.094Z,24.60
2019-04-01T13:31:54.973Z,23.90
2019-04-01T13:34:23.763Z,24.80
2019-04-01T13:36:54.718Z,25.40
2019-04-01T13:39:23.631Z,25.70
2019-04-01T13:41:56.025Z,25.10
2019-04-01T13:44:36.262Z,25.60
2019-04-01T13:46:55.934Z,25.80
2019-04-01T13:49:24.362Z,25.80
2019-04-01T13:51:53.243Z,26.00
2019-04-01T13:54:22.211Z,26.10
2019-04-01T13:56:51.018Z,27.00
2019-04-01T13:59:20.121Z,27.50
2019-04-01T14:01:49.016Z,26.70
2019-04-01T14:04:18.841Z,27.00
2019-04-01T14:06:47.681Z,27.20
2019-04-01T14:09:16.654Z,27.10
2019-04-01T14:11:45.534Z,26.70
2019-04-01T14:14:14.327Z,26.70
2019-04-01T14:16:44.012Z,26.80
2019-04-01T14:19:13.065Z,26.20
2019-04-01T14:21:42.279Z,25.40
2019-04-01T14:24:11.174Z,23.70
2019-04-01T14:26:40.943Z,23.50
2019-04-01T14:29:10.024Z,24.10
2019-04-01T14:31:38.886Z,24.20
2019-04-01T14:34:13.124Z,23.80
2019-04-01T14:36:38.586Z,22.30
2019-04-01T14:39:07.711Z,21.50
2019-04-01T14:41:36.529Z,21.70
2019-04-01T14:44:05.447Z,22.00
2019-04-01T14:46:34.371Z,22.80
2019-04-01T14:49:03.328Z,23.40
2019-04-01T14:51:32.215Z,23.40
2019-04-01T14:54:01.379Z,23.00
2019-04-01T14:56:30.321Z,23.10
2019-04-01T14:58:59.359Z,23.30
2019-04-01T15:01:30.139Z,23.80
2019-04-01T15:04:02.611Z,24.20
2019-04-01T15:06:31.898Z,24.70
2019-04-01T15:09:00.789Z,24.80
2019-04-01T15:11:29.663Z,24.60
2019-04-01T15:14:00.164Z,24.50
2019-04-01T15:16:29.299Z,23.30
2019-04-01T15:18:58.213Z,23.40
2019-04-01T15:21:27.243Z,22.80
2019-04-01T15:23:57.691Z,21.60
2019-04-01T15:26:26.758Z,21.90
2019-04-01T15:28:55.714Z,21.90
2019-04-01T15:31:25.342Z,22.40
2019-04-01T15:33:54.294Z,22.80
2019-04-01T15:36:23.143Z,22.50
2019-04-01T15:38:51.962Z,22.50
2019-04-01T15:41:20.938Z,22.80
2019-04-01T15:43:49.757Z,23.00
2019-04-01T15:46:19.233Z,22.50
2019-04-01T15:48:48.038Z,22.50
2019-04-01T15:51:16.818Z,22.10
2019-04-01T15:53:45.999Z,22.30
2019-04-01T15:56:14.983Z,22.40
2019-04-01T15:58:43.942Z,21.70
2019-04-01T16:01:12.870Z,21.80
2019-04-01T16:03:41.878Z,21.90
2019-04-01T16:06:10.718Z,21.70
2019-04-01T16:08:39.550Z,21.90
2019-04-01T16:11:08.330Z,22.20
2019-04-01T16:13:37.482Z,22.20
2019-04-01T16:16:07.209Z,22.20
2019-04-01T16:18:36.514Z,22.30
2019-04-01T16:21:05.455Z,22.20
2019-04-01T16:23:34.893Z,21.80
2019-04-01T16:26:03.823Z,21.50
2019-04-01T16:28:32.606Z,20.80
2019-04-01T16:31:01.415Z,19.90
2019-04-01T16:33:30.280Z,19.20
2019-04-01T16:35:59.443Z,18.70
2019-04-01T16:38:28.247Z,18.20
2019-04-01T16:40:57.019Z,17.90
2019-04-01T16:43:25.803Z,17.50
2019-04-01T16:45:55.986Z,17.30
2019-04-01T16:48:25.067Z,17.50
2019-04-01T16:50:53.950Z,17.50
2019-04-01T16:53:22.799Z,17.50
2019-04-01T16:55:51.672Z,17.50
2019-04-01T16:58:20.676Z,17.50
2019-04-01T17:00:49.538Z,17.40
2019-04-01T17:03:19.701Z,17.20
2019-04-01T17:05:48.916Z,17.00
2019-04-01T17:08:21.538Z,16.80
2019-04-01T17:10:50.375Z,16.40
2019-04-01T17:13:19.511Z,16.10
2019-04-01T17:15:48.368Z,15.90
2019-04-01T17:18:17.204Z,15.70
2019-04-01T17:20:46.158Z,15.50
2019-04-01T17:23:14.947Z,15.30
2019-04-01T17:25:43.698Z,15.20
2019-04-01T17:28:12.570Z,15.00
2019-04-01T17:30:41.434Z,14.90
2019-04-01T17:33:10.232Z,14.70
2019-04-01T17:35:39.154Z,14.60
2019-04-01T17:38:07.932Z,14.40
2019-04-01T17:40:36.836Z,14.30
2019-04-01T17:43:05.758Z,14.30
2019-04-01T17:45:37.370Z,14.10
2019-04-01T17:48:07.110Z,14.10
2019-04-01T17:50:36.263Z,14.00
2019-04-01T17:53:07.042Z,13.90
2019-04-01T17:55:35.955Z,13.80
2019-04-01T17:58:06.064Z,13.70
2019-04-01T18:00:36.742Z,13.70
2019-04-01T18:03:09.185Z,13.60
2019-04-01T18:05:36.335Z,13.60
2019-04-01T18:08:05.480Z,13.50
2019-04-01T18:10:34.751Z,13.50
2019-04-01T18:13:03.634Z,13.40
2019-04-01T18:15:32.571Z,13.40
2019-04-01T18:18:01.691Z,13.30
2019-04-01T18:20:30.582Z,13.20
2019-04-01T18:22:59.463Z,13.10
2019-04-01T18:25:28.479Z,13.00
2019-04-01T18:27:58.426Z,12.90
2019-04-01T18:30:27.375Z,12.80
2019-04-01T18:32:56.327Z,12.70
2019-04-01T18:35:25.681Z,12.60
2019-04-01T18:37:55.042Z,12.50
2019-04-01T18:40:32.672Z,12.40
2019-04-01T18:42:55.382Z,12.30
2019-04-01T18:45:24.206Z,12.20
2019-04-01T18:47:53.167Z,12.10
2019-04-01T18:50:22.102Z,12.10
2019-04-01T18:52:51.043Z,12.00
2019-04-01T18:55:20.047Z,11.90
2019-04-01T18:57:48.854Z,11.80
2019-04-01T19:00:18.560Z,11.60
2019-04-01T19:02:48.830Z,11.60
2019-04-01T19:05:17.711Z,11.50
2019-04-01T19:07:46.600Z,11.50
2019-04-01T19:10:15.554Z,11.40
2019-04-01T19:12:44.450Z,11.20
2019-04-01T19:15:13.557Z,11.10
2019-04-01T19:17:43.095Z,11.10
2019-04-01T19:20:12.458Z,11.10
2019-04-01T19:22:41.330Z,11.00
2019-04-01T19:25:10.876Z,10.90
2019-04-01T19:27:39.659Z,10.90
2019-04-01T19:30:09.112Z,10.90
2019-04-01T19:32:38.381Z,10.90
2019-04-01T19:35:09.412Z,10.80
2019-04-01T19:37:38.515Z,10.80
2019-04-01T19:40:09.339Z,10.80
2019-04-01T19:42:39.673Z,10.70
2019-04-01T19:45:11.957Z,10.60
2019-04-01T19:47:41.152Z,10.50
2019-04-01T19:50:10.866Z,10.50
2019-04-01T19:52:39.622Z,10.30
2019-04-01T19:55:08.666Z,10.30
2019-04-01T19:57:37.498Z,10.30
2019-04-01T20:00:07.360Z,10.30
2019-04-01T20:02:36.400Z,10.30
2019-04-01T20:05:05.630Z,10.30
2019-04-01T20:07:34.425Z,10.30
2019-04-01T20:10:04.869Z,10.20
2019-04-01T20:12:33.757Z,10.20
2019-04-01T20:15:02.630Z,10.20
2019-04-01T20:17:31.578Z,10.20
2019-04-01T20:20:02.280Z,10.20
2019-04-01T20:22:30.971Z,10.10
2019-04-01T20:24:59.940Z,10.10
2019-04-01T20:27:28.752Z,10.00
2019-04-01T20:29:57.538Z,9.90
2019-04-01T20:32:26.491Z,9.80
2019-04-01T20:34:57.139Z,9.80
2019-04-01T20:37:26.162Z,9.70
2019-04-01T20:39:55.990Z,9.70
2019-04-01T20:42:25.176Z,9.60
2019-04-01T20:44:53.947Z,9.50
2019-04-01T20:47:22.827Z,9.50
2019-04-01T20:49:51.772Z,9.50
2019-04-01T20:52:21.461Z,9.40
2019-04-01T20:54:50.610Z,9.40
2019-04-01T20:57:21.833Z,9.40
2019-04-01T20:59:50.165Z,9.40
2019-04-01T21:02:18.980Z,9.40
2019-04-01T21:04:47.783Z,9.30
2019-04-01T21:07:18.191Z,9.30
2019-04-01T21:09:47.291Z,9.20
2019-04-01T21:12:16.144Z,9.20
2019-04-01T21:14:44.954Z,9.20
2019-04-01T21:17:13.990Z,9.10
2019-04-01T21:19:42.834Z,9.10
2019-04-01T21:22:11.668Z,9.00
2019-04-01T21:24:40.555Z,8.90
2019-04-01T21:27:09.490Z,8.90
2019-04-01T21:29:38.303Z,8.90
2019-04-01T21:32:07.159Z,8.90
2019-04-01T21:34:35.944Z,8.90
2019-04-01T21:37:06.136Z,8.90
2019-04-01T21:39:37.726Z,8.90
2019-04-01T21:42:06.211Z,8.90
2019-04-01T21:44:35.033Z,8.90
2019-04-01T21:47:03.902Z,8.90
2019-04-01T21:49:32.802Z,8.80
2019-04-01T21:52:02.156Z,8.70
2019-04-01T21:54:31.286Z,8.60
2019-04-01T21:57:00.243Z,8.60
2019-04-01T21:59:29.411Z,8.50
2019-04-01T22:01:58.428Z,8.50
2019-04-01T22:04:27.370Z,8.50
2019-04-01T22:06:56.680Z,8.40
2019-04-01T22:09:25.592Z,8.40
2019-04-01T22:11:54.523Z,8.30
2019-04-01T22:14:25.117Z,8.30
2019-04-01T22:16:54.083Z,8.20
2019-04-01T22:19:22.966Z,8.20
2019-04-01T22:21:52.001Z,8.20
2019-04-01T22:24:21.428Z,8.20
2019-04-01T22:26:50.622Z,8.10
2019-04-01T22:29:20.095Z,8.10
2019-04-01T22:31:49.343Z,8.10
2019-04-01T22:34:18.119Z,8.10
2019-04-01T22:36:47.163Z,8.10
2019-04-01T22:39:26.660Z,8.00
2019-04-01T22:41:46.655Z,7.90
2019-04-01T22:44:15.474Z,7.90
2019-04-01T22:46:44.375Z,7.90
2019-04-01T22:49:13.256Z,7.90
2019-04-01T22:51:42.099Z,7.80
2019-04-01T22:54:10.855Z,7.80
2019-04-01T22:56:39.675Z,7.80
2019-04-01T22:59:08.474Z,7.80
2019-04-01T23:01:37.310Z,7.70
2019-04-01T23:04:06.259Z,7.70
2019-04-01T23:06:35.386Z,7.60
2019-04-01T23:09:07.330Z,7.60
2019-04-01T23:11:36.127Z,7.60
2019-04-01T23:14:05.480Z,7.60
2019-04-01T23:16:34.399Z,7.60
2019-04-01T23:19:05.058Z,7.50
2019-04-01T23:21:34.015Z,7.50
2019-04-01T23:24:02.878Z,7.50
2019-04-01T23:26:31.747Z,7.40
2019-04-01T23:29:00.544Z,7.40
2019-04-01T23:31:29.637Z,7.30
2019-04-01T23:33:58.415Z,7.20
2019-04-01T23:36:27.370Z,7.20
2019-04-01T23:38:56.139Z,7.10
2019-04-01T23:41:24.998Z,7.00
2019-04-01T23:43:54.202Z,6.90
2019-04-01T23:46:23.810Z,6.90
2019-04-01T23:48:52.607Z,7.00
2019-04-01T23:51:21.458Z,7.00
2019-04-01T23:53:50.514Z,6.90
2019-04-01T23:56:19.386Z,6.90
2019-04-01T23:58:48.354Z,6.90
